Huvudsida
METAR-TAF:

METAR-TAF

Flygplatser :

Rabat-Salé Airport

Rabat, Marocko

latitud: 34-03N, longitud: 006-46W, höjd: 84 m

Aktuellt väderrapport

Denna rapport gjordes för 14 minuter sedan, klockan 03:00 UTC
Stilla vind
Temperatur 19°C
Fuktighet 100%
Tryck 1016 hPa
Sikt: 6000 m

METAR: GMME 230300Z 00000KT 150V250 6000 NSC 19/19 Q1016 NOSIG

Tid: 04:14 (03:14 UTC)

Väderprognos

Denna rapport gjordes för 4 timmar och 14 minuter sedan, klockan 23:00 UTC
Prognos gäller från 23 kl. 00 UTC till 24 kl. 06 UTC
Vind 10 kt från nordväst
Sikt: 8000 m
Temporärt
från 23 kl. 00 UTC till 23 kl. 10 UTC
Vind 2 kt varierande vindriktning
Sikt: 3000 m
Brutna moln på en höjd av 800 ft
fuktdis
Blir
från 23 kl. 03 UTC till 23 kl. 07 UTC
Sikt: 0500 m
Mulet på en höjd av 400 ft
dimma

TAF: GMME 222300Z 2300/2406 32010KT 8000 NSC TEMPO 2300/2310 VRB02KT 3000 BR BKN008 BECMG 2303/2307 0500 FG OVC004

Aktuella väderrapporter och prognoser från 4000 flygplatser (METAR- och TAF-rapporter).

De tillgängliga stationerna syns som gula och röda prickar på kartan.

För musen över prickarna för att se namnen på stationerna.

Klicka sedan för att få väderrapporter och prognoser.

För att ändra kartan: Klicka på de gröna knapparna med ett svart kors på för att zooma in; den gröna knappen med ett streck på för att zooma ut; eller på de gröna pilarna för angränsande kartor.


METAR-TAF: